createdAt,value
2022-08-26T00:01:18.234Z,100000.72
2022-08-26T00:03:56.468Z,100001.59
2022-08-26T00:06:23.506Z,100005.03
2022-08-26T00:08:50.134Z,100001.38
2022-08-26T00:11:26.778Z,100000.88
2022-08-26T00:13:55.667Z,99993.84
2022-08-26T00:16:24.738Z,99986.06
2022-08-26T00:18:51.477Z,99988.34
2022-08-26T00:21:18.566Z,99988.91
2022-08-26T00:23:45.738Z,99983.44
2022-08-26T00:26:13.486Z,99987.06
2022-08-26T00:28:40.749Z,99985.91
2022-08-26T00:31:07.964Z,99982.28
2022-08-26T00:33:38.270Z,99984.81
2022-08-26T00:36:05.991Z,99984.97
2022-08-26T00:38:32.944Z,99987.41
2022-08-26T00:40:59.578Z,99998.78
2022-08-26T00:43:27.142Z,99993.38
2022-08-26T00:46:00.285Z,99992.31
2022-08-26T00:48:32.614Z,99994.09
2022-08-26T00:51:11.096Z,99983.78
2022-08-26T00:53:45.745Z,99982.50
2022-08-26T00:56:29.829Z,99979.56
2022-08-26T00:59:00.867Z,99980.13
2022-08-26T01:01:28.420Z,99975.44
2022-08-26T01:03:58.719Z,99975.44
2022-08-26T01:06:27.364Z,99974.66
2022-08-26T01:08:54.584Z,99968.97
2022-08-26T01:11:21.378Z,99968.19
2022-08-26T01:13:50.872Z,99968.41
2022-08-26T01:16:17.906Z,99976.91
2022-08-26T01:18:45.250Z,99975.34
2022-08-26T01:21:46.987Z,99977.38
2022-08-26T01:24:14.895Z,99984.84
2022-08-26T01:26:44.748Z,99988.66
2022-08-26T01:29:17.885Z,99981.78
2022-08-26T01:31:48.081Z,99987.47
2022-08-26T01:34:20.084Z,99982.56
2022-08-26T01:36:51.670Z,99978.19
2022-08-26T01:39:18.690Z,99979.94
2022-08-26T01:41:46.294Z,99970.84
2022-08-26T01:44:18.561Z,99981.22
2022-08-26T01:46:46.770Z,99981.69
2022-08-26T01:49:15.291Z,99976.22
2022-08-26T01:51:44.368Z,99975.72
2022-08-26T01:54:11.923Z,99984.53
2022-08-26T01:56:41.081Z,99975.41
2022-08-26T01:59:13.042Z,99976.00
2022-08-26T02:01:40.607Z,99976.19
2022-08-26T02:04:15.854Z,99972.97
2022-08-26T02:06:43.584Z,99972.84
2022-08-26T02:09:11.153Z,99970.50
2022-08-26T02:11:38.615Z,99976.00
2022-08-26T02:14:11.431Z,99971.31
2022-08-26T02:16:42.250Z,99975.69
2022-08-26T02:19:16.905Z,99980.09
2022-08-26T02:21:51.282Z,99978.53
2022-08-26T02:24:24.630Z,99985.97
2022-08-26T02:26:55.210Z,99979.03
2022-08-26T02:29:37.096Z,99983.44
2022-08-26T02:32:08.059Z,99971.56
2022-08-26T02:34:35.098Z,99979.59
2022-08-26T02:37:06.219Z,99979.31
2022-08-26T02:39:34.133Z,99972.38
2022-08-26T02:42:00.723Z,99970.78
2022-08-26T02:44:27.533Z,99968.63
2022-08-26T02:46:54.778Z,99977.44
2022-08-26T02:49:23.612Z,99967.38
2022-08-26T02:51:50.976Z,99960.28
2022-08-26T02:54:21.360Z,99965.47
2022-08-26T02:56:48.901Z,99956.88
2022-08-26T02:59:15.484Z,99965.22
2022-08-26T03:01:42.720Z,99954.81
2022-08-26T03:04:12.110Z,99957.34
2022-08-26T03:06:40.804Z,99964.31
2022-08-26T03:09:09.090Z,99951.94
2022-08-26T03:11:36.577Z,99953.50
2022-08-26T03:14:04.173Z,99954.09
2022-08-26T03:16:33.705Z,99953.16
2022-08-26T03:19:01.146Z,99952.97
2022-08-26T03:21:28.044Z,99953.63
2022-08-26T03:23:54.980Z,99950.06
2022-08-26T03:26:26.946Z,99943.84
2022-08-26T03:29:26.718Z,99951.06
2022-08-26T03:32:01.286Z,99953.34
2022-08-26T03:34:28.141Z,99949.81
2022-08-26T03:36:54.703Z,99945.81
2022-08-26T03:39:21.367Z,99946.69
2022-08-26T03:41:48.108Z,99944.63
2022-08-26T03:44:15.079Z,99953.28
2022-08-26T03:46:41.687Z,99958.72
2022-08-26T03:49:10.709Z,99954.09
2022-08-26T03:51:38.825Z,99953.22
2022-08-26T03:54:06.881Z,99942.66
2022-08-26T03:56:36.657Z,99945.81
2022-08-26T03:59:04.686Z,99941.97
2022-08-26T04:01:34.168Z,99945.88
2022-08-26T04:04:01.371Z,99951.56
2022-08-26T04:06:43.026Z,99950.50
2022-08-26T04:09:14.747Z,99947.06
2022-08-26T04:11:44.216Z,99943.22
2022-08-26T04:14:17.695Z,99938.53
2022-08-26T04:16:48.050Z,99940.41
2022-08-26T04:19:16.700Z,99944.50
2022-08-26T04:21:44.587Z,99939.81
2022-08-26T04:24:14.154Z,99942.16
2022-08-26T04:26:42.533Z,99949.88
2022-08-26T04:29:19.347Z,99949.09
2022-08-26T04:31:48.250Z,99962.72
2022-08-26T04:34:15.370Z,99953.22
2022-08-26T04:36:43.149Z,99945.50
2022-08-26T04:39:12.341Z,99956.84
2022-08-26T04:41:39.559Z,99952.41
2022-08-26T04:44:07.150Z,99955.75
2022-08-26T04:46:34.017Z,99956.41
2022-08-26T04:49:00.661Z,99952.41
2022-08-26T04:51:28.077Z,99957.34
2022-08-26T04:53:57.170Z,99952.41
2022-08-26T04:56:29.453Z,99949.28
2022-08-26T04:58:56.522Z,99947.53
2022-08-26T05:01:24.051Z,99939.69
2022-08-26T05:03:51.682Z,99950.69
2022-08-26T05:06:20.005Z,99945.00
2022-08-26T05:08:47.155Z,99947.66
2022-08-26T05:11:14.130Z,99947.16
2022-08-26T05:13:41.398Z,99956.66
2022-08-26T05:16:11.847Z,99948.09
2022-08-26T05:18:39.737Z,99959.44
2022-08-26T05:21:07.173Z,99951.91
2022-08-26T05:23:36.115Z,99962.63
2022-08-26T05:26:08.080Z,99966.00
2022-08-26T05:28:34.843Z,99968.75
2022-08-26T05:31:12.051Z,99962.72
2022-08-26T05:33:38.701Z,99953.94
2022-08-26T05:36:15.212Z,99957.28
2022-08-26T05:38:42.779Z,99952.81
2022-08-26T05:41:18.387Z,99960.53
2022-08-26T05:43:45.077Z,99952.41
2022-08-26T05:46:11.862Z,99945.41
2022-08-26T05:48:38.737Z,99948.47
2022-08-26T05:51:12.501Z,99953.63
2022-08-26T05:53:41.061Z,99943.44
2022-08-26T05:56:11.932Z,99949.19
2022-08-26T05:58:40.953Z,99946.91
2022-08-26T06:01:10.364Z,99944.56
2022-08-26T06:03:40.341Z,99943.50
2022-08-26T06:06:09.845Z,99943.22
2022-08-26T06:08:37.637Z,99948.34
2022-08-26T06:11:07.625Z,99949.47
2022-08-26T06:13:45.989Z,99938.13
2022-08-26T06:16:16.924Z,99954.78
2022-08-26T06:18:45.602Z,99951.56
2022-08-26T06:21:22.744Z,99948.25
2022-08-26T06:24:10.214Z,99949.81
2022-08-26T06:26:38.584Z,99952.34
2022-08-26T06:29:09.622Z,99972.16
2022-08-26T06:31:37.265Z,99959.41
2022-08-26T06:34:10.593Z,99958.72
2022-08-26T06:36:39.372Z,99969.91
2022-08-26T06:39:10.214Z,99971.28
2022-08-26T06:41:43.186Z,99954.16
2022-08-26T06:44:10.346Z,99938.09
2022-08-26T06:46:37.687Z,99959.34
2022-08-26T06:49:04.747Z,99951.69
2022-08-26T06:51:34.702Z,99967.59
2022-08-26T06:54:02.652Z,99952.41
2022-08-26T06:56:37.907Z,99954.03
2022-08-26T06:59:05.064Z,99958.84
2022-08-26T07:01:37.824Z,99952.59
2022-08-26T07:04:07.924Z,99958.78
2022-08-26T07:06:40.568Z,99958.78
2022-08-26T07:09:10.126Z,99951.44
2022-08-26T07:11:38.623Z,99951.91
2022-08-26T07:14:06.230Z,99951.34
2022-08-26T07:16:33.627Z,99959.78
2022-08-26T07:19:03.415Z,99955.44
2022-08-26T07:21:37.501Z,99951.19
2022-08-26T07:24:04.439Z,99958.63
2022-08-26T07:26:31.650Z,99954.78
2022-08-26T07:28:59.563Z,99956.16
2022-08-26T07:31:29.701Z,99961.63
2022-08-26T07:33:57.901Z,99954.53
2022-08-26T07:36:28.223Z,99953.25
2022-08-26T07:38:55.159Z,99953.94
2022-08-26T07:41:24.279Z,99958.47
2022-08-26T07:43:52.454Z,99968.25
2022-08-26T07:46:20.740Z,99955.28
2022-08-26T07:48:53.947Z,99959.22
2022-08-26T07:51:21.654Z,99954.16
2022-08-26T07:53:52.395Z,99948.03
2022-08-26T07:56:21.088Z,99951.84
2022-08-26T07:58:51.585Z,99955.31
2022-08-26T08:01:23.895Z,99959.03
2022-08-26T08:03:51.870Z,99959.56
2022-08-26T08:06:20.816Z,99963.09
2022-08-26T08:08:50.704Z,99961.28
2022-08-26T08:11:23.260Z,99951.25
2022-08-26T08:13:55.991Z,99963.25
2022-08-26T08:16:25.152Z,99962.31
2022-08-26T08:18:53.495Z,99956.09
2022-08-26T08:21:21.426Z,99962.44
2022-08-26T08:23:55.405Z,99953.66
2022-08-26T08:26:24.260Z,99953.72
2022-08-26T08:28:54.047Z,99946.50
2022-08-26T08:31:56.846Z,99955.66
2022-08-26T08:34:16.737Z,99957.00
2022-08-26T08:36:46.419Z,99956.06
2022-08-26T08:39:13.906Z,99942.13
2022-08-26T08:41:49.878Z,99955.59
2022-08-26T08:44:30.857Z,68515.09
2022-08-26T08:47:06.193Z,68515.09
2022-08-26T08:49:34.477Z,68515.09
2022-08-26T08:52:19.416Z,68515.09
2022-08-26T08:54:46.479Z,68515.09
2022-08-26T08:57:21.100Z,68515.09
2022-08-26T08:59:58.487Z,68515.09
2022-08-26T09:02:43.101Z,99932.13
2022-08-26T09:05:21.722Z,99927.50
2022-08-26T09:08:12.225Z,99938.69
2022-08-26T09:10:43.725Z,99929.09
2022-08-26T09:13:25.414Z,99926.81
2022-08-26T09:16:14.909Z,99912.28
2022-08-26T09:18:54.524Z,99927.41
2022-08-26T09:21:23.547Z,99920.69
2022-08-26T09:23:56.697Z,99926.94
2022-08-26T09:26:41.164Z,99916.34
2022-08-26T09:29:31.451Z,99921.03
2022-08-26T09:32:16.227Z,99916.34
2022-08-26T09:34:55.230Z,99913.25
2022-08-26T09:37:41.283Z,99910.16
2022-08-26T09:40:30.748Z,99921.31
2022-08-26T09:43:22.367Z,99909.91
2022-08-26T09:45:58.377Z,99914.06
2022-08-26T09:48:35.494Z,99909.38
2022-08-26T09:51:07.051Z,99909.41
2022-08-26T09:53:49.453Z,99906.28
2022-08-26T09:56:23.342Z,99899.53
2022-08-26T09:58:50.701Z,99898.72
2022-08-26T10:01:42.180Z,99892.22
2022-08-26T10:04:12.277Z,99899.75
2022-08-26T10:06:43.379Z,99895.06
2022-08-26T10:09:14.075Z,99895.81
2022-08-26T10:11:48.898Z,99893.72
2022-08-26T10:14:27.853Z,99891.38
2022-08-26T10:17:03.720Z,99891.09
2022-08-26T10:19:55.522Z,99886.44
2022-08-26T10:22:38.699Z,99888.19
2022-08-26T10:25:09.918Z,99880.09
2022-08-26T10:27:53.415Z,99874.66
2022-08-26T10:30:27.634Z,99874.34
2022-08-26T10:33:10.147Z,99870.38
2022-08-26T10:35:44.999Z,99831.19
2022-08-26T10:38:16.982Z,99867.97
2022-08-26T10:41:24.131Z,99861.22
2022-08-26T10:43:59.628Z,99866.38
2022-08-26T10:46:33.014Z,99868.97
2022-08-26T10:49:06.523Z,99863.72
2022-08-26T10:51:42.039Z,99865.28
2022-08-26T10:54:16.534Z,99871.47
2022-08-26T10:56:49.537Z,99856.59
2022-08-26T10:59:50.919Z,99859.66
2022-08-26T11:02:47.097Z,99854.38
2022-08-26T11:05:19.608Z,99852.28
2022-08-26T11:07:51.395Z,99849.88
2022-08-26T11:10:21.316Z,99845.44
2022-08-26T11:13:05.026Z,99847.66
2022-08-26T11:15:31.544Z,99843.81
2022-08-26T11:18:05.436Z,99839.06
2022-08-26T11:20:37.145Z,99839.22
2022-08-26T11:23:20.794Z,99848.28
2022-08-26T11:25:57.346Z,99831.41
2022-08-26T11:28:35.532Z,99832.66
2022-08-26T11:31:04.630Z,99831.06
2022-08-26T11:33:43.902Z,99834.59
2022-08-26T11:36:27.037Z,99822.56
2022-08-26T11:38:54.644Z,99822.97
2022-08-26T11:41:22.969Z,99820.41
2022-08-26T11:43:52.238Z,99812.47
2022-08-26T11:46:31.378Z,99805.03
2022-08-26T11:49:06.019Z,99810.44
2022-08-26T11:51:38.217Z,99807.72
2022-08-26T11:54:16.240Z,99803.53
2022-08-26T11:56:46.148Z,99800.50
2022-08-26T11:59:18.894Z,99797.28
2022-08-26T12:01:49.731Z,99797.97
2022-08-26T12:04:30.114Z,99793.31
2022-08-26T12:07:00.653Z,99791.38
2022-08-26T12:09:30.393Z,99788.41
2022-08-26T12:12:17.789Z,99779.13
2022-08-26T12:14:45.400Z,99776.72
2022-08-26T12:17:16.173Z,99780.94
2022-08-26T12:19:43.561Z,99780.59
2022-08-26T12:22:19.165Z,99776.03
2022-08-26T12:25:01.385Z,99779.16
2022-08-26T12:27:36.900Z,99783.72
2022-08-26T12:30:10.071Z,99772.28
2022-08-26T12:32:52.815Z,99769.22
2022-08-26T12:35:24.484Z,99763.91
2022-08-26T12:37:54.139Z,99757.44
2022-08-26T12:40:43.257Z,99769.34
2022-08-26T12:43:12.232Z,99764.72
2022-08-26T12:45:54.863Z,99749.56
2022-08-26T12:48:30.781Z,99752.50
2022-08-26T12:50:58.745Z,99741.88
2022-08-26T12:53:32.119Z,99752.59
2022-08-26T12:56:03.519Z,99742.66
2022-08-26T12:58:30.091Z,99738.31
2022-08-26T13:00:58.278Z,99739.31
2022-08-26T13:03:30.796Z,99736.97
2022-08-26T13:06:31.290Z,99729.31
2022-08-26T13:09:23.901Z,99724.13
2022-08-26T13:11:52.950Z,99726.38
2022-08-26T13:14:24.107Z,99720.81
2022-08-26T13:16:51.984Z,99721.47
2022-08-26T13:19:23.960Z,99716.50
2022-08-26T13:21:56.526Z,99708.63
2022-08-26T13:24:27.860Z,99705.19
2022-08-26T13:26:54.639Z,99705.19
2022-08-26T13:29:21.308Z,99700.22
2022-08-26T13:31:48.125Z,99700.63
2022-08-26T13:34:20.934Z,99697.75
2022-08-26T13:36:49.610Z,99689.22
2022-08-26T13:39:16.659Z,99688.13
2022-08-26T13:41:43.405Z,99680.81
2022-08-26T13:44:10.916Z,99686.78
2022-08-26T13:46:37.966Z,99680.38
2022-08-26T13:49:04.968Z,99687.91
2022-08-26T13:51:32.543Z,99675.28
2022-08-26T13:54:00.003Z,99669.41
2022-08-26T13:56:29.690Z,99672.16
2022-08-26T13:58:57.808Z,99670.09
2022-08-26T14:01:25.348Z,99664.06
2022-08-26T14:03:52.346Z,99666.75
2022-08-26T14:06:19.374Z,99668.00
2022-08-26T14:08:47.008Z,99658.25
2022-08-26T14:11:13.751Z,99653.38
2022-08-26T14:13:40.504Z,99659.50
2022-08-26T14:16:22.680Z,99657.06
2022-08-26T14:18:50.986Z,99650.03
2022-08-26T14:21:18.638Z,99651.28
2022-08-26T14:23:45.444Z,99659.56
2022-08-26T14:26:28.160Z,99646.06
2022-08-26T14:28:56.461Z,99650.81
2022-08-26T14:31:23.935Z,99656.38
2022-08-26T14:33:50.747Z,99660.13
2022-08-26T14:36:29.458Z,99655.13
2022-08-26T14:38:58.271Z,99654.94
2022-08-26T14:41:25.529Z,99657.31
2022-08-26T14:44:08.140Z,99658.03
2022-08-26T14:46:42.328Z,99654.94
2022-08-26T14:49:10.741Z,99660.91
2022-08-26T14:51:38.218Z,99647.19
2022-08-26T14:54:14.091Z,99653.88
2022-08-26T14:56:46.451Z,99650.13
2022-08-26T14:59:15.016Z,99651.75
2022-08-26T15:01:41.692Z,99648.53
2022-08-26T15:04:08.400Z,99632.53
2022-08-26T15:06:36.604Z,99642.19
2022-08-26T15:09:04.694Z,99640.22
2022-08-26T15:11:31.365Z,99638.09
2022-08-26T15:13:58.057Z,99638.78
2022-08-26T15:16:24.823Z,99626.69
2022-08-26T15:18:51.767Z,99629.69
2022-08-26T15:21:20.346Z,99627.91
2022-08-26T15:23:48.901Z,99626.69
2022-08-26T15:26:16.732Z,99625.38
2022-08-26T15:28:44.180Z,99624.59
2022-08-26T15:31:11.037Z,99623.34
2022-08-26T15:33:38.339Z,99624.78
2022-08-26T15:36:07.524Z,99622.34
2022-08-26T15:38:37.047Z,99620.66
2022-08-26T15:41:05.486Z,99613.56
2022-08-26T15:43:32.328Z,99614.44
2022-08-26T15:45:59.203Z,99616.94
2022-08-26T15:48:26.240Z,99616.00
2022-08-26T15:50:56.380Z,99614.56
2022-08-26T15:53:23.879Z,68515.09
2022-08-26T15:55:54.101Z,68515.09
2022-08-26T15:58:21.686Z,99604.81
2022-08-26T16:00:48.260Z,99602.78
2022-08-26T16:03:14.850Z,99608.38
2022-08-26T16:05:43.735Z,99604.53
2022-08-26T16:08:10.761Z,99605.13
2022-08-26T16:10:41.393Z,99602.56
2022-08-26T16:13:10.351Z,99600.53
2022-08-26T16:15:39.688Z,99609.47
2022-08-26T16:18:07.762Z,99590.38
2022-08-26T16:20:37.348Z,99601.66
2022-08-26T16:23:05.961Z,99605.19
2022-08-26T16:25:32.867Z,99589.16
2022-08-26T16:27:59.551Z,99592.22
2022-08-26T16:30:26.783Z,99592.09
2022-08-26T16:32:55.411Z,99588.50
2022-08-26T16:35:22.046Z,99588.34
2022-08-26T16:37:48.641Z,99585.00
2022-08-26T16:40:15.333Z,99578.63
2022-08-26T16:42:42.090Z,99579.75
2022-08-26T16:45:09.121Z,99582.38
2022-08-26T16:47:36.082Z,99577.94
2022-08-26T16:50:04.285Z,99578.03
2022-08-26T16:52:31.485Z,99581.97
2022-08-26T16:54:58.422Z,99582.97
2022-08-26T16:57:25.108Z,99573.94
2022-08-26T16:59:51.809Z,99582.19
2022-08-26T17:02:18.348Z,99573.59
2022-08-26T17:04:47.253Z,99579.34
2022-08-26T17:07:17.180Z,99567.16
2022-08-26T17:09:43.896Z,99581.44
2022-08-26T17:12:10.494Z,99574.94
2022-08-26T17:14:37.313Z,99581.75
2022-08-26T17:17:04.123Z,99580.75
2022-08-26T17:19:30.754Z,99576.81
2022-08-26T17:22:08.750Z,99579.69
2022-08-26T17:24:35.531Z,99574.47
2022-08-26T17:27:02.055Z,99581.16
2022-08-26T17:29:28.607Z,99585.06
2022-08-26T17:31:55.579Z,99579.13
2022-08-26T17:34:22.914Z,99583.16
2022-08-26T17:36:49.977Z,99583.47
2022-08-26T17:39:16.649Z,99581.50
2022-08-26T17:41:43.640Z,99574.97
2022-08-26T17:44:10.616Z,99580.50
2022-08-26T17:46:38.449Z,99578.88
2022-08-26T17:49:06.317Z,99574.22
2022-08-26T17:51:33.272Z,99573.94
2022-08-26T17:53:59.858Z,99574.75
2022-08-26T17:56:29.116Z,99578.84
2022-08-26T17:59:04.143Z,99580.81
2022-08-26T18:01:31.801Z,99589.91
2022-08-26T18:04:00.542Z,99584.44
2022-08-26T18:06:30.362Z,99582.41
2022-08-26T18:08:58.142Z,99595.09
2022-08-26T18:11:24.724Z,99591.97
2022-08-26T18:13:51.626Z,99589.16
2022-08-26T18:16:19.674Z,99591.03
2022-08-26T18:18:48.467Z,99587.34
2022-08-26T18:21:18.147Z,99593.09
2022-08-26T18:23:46.115Z,99591.59
2022-08-26T18:26:25.283Z,99591.56
2022-08-26T18:28:52.267Z,99563.56
2022-08-26T18:31:19.774Z,99582.00
2022-08-26T18:33:47.320Z,99572.28
2022-08-26T18:36:24.460Z,99581.53
2022-08-26T18:38:52.089Z,99588.84
2022-08-26T18:41:20.919Z,99590.63
2022-08-26T18:43:50.413Z,99596.09
2022-08-26T18:46:18.219Z,99588.56
2022-08-26T18:48:44.814Z,99595.38
2022-08-26T18:51:24.833Z,99605.75
2022-08-26T18:53:51.642Z,99608.34
2022-08-26T18:56:18.941Z,99608.91
2022-08-26T18:58:45.821Z,99604.03
2022-08-26T19:01:13.459Z,99604.78
2022-08-26T19:03:40.242Z,99608.44
2022-08-26T19:06:07.231Z,99613.16
2022-08-26T19:08:33.772Z,99618.84
2022-08-26T19:11:00.709Z,99621.72
2022-08-26T19:13:27.270Z,99626.41
2022-08-26T19:15:53.920Z,99624.81
2022-08-26T19:18:20.638Z,99620.16
2022-08-26T19:20:48.038Z,99629.78
2022-08-26T19:23:30.838Z,99635.75
2022-08-26T19:25:58.916Z,99632.66
2022-08-26T19:28:25.568Z,99633.66
2022-08-26T19:30:53.372Z,99641.97
2022-08-26T19:33:20.191Z,99637.84
2022-08-26T19:35:46.776Z,99634.47
2022-08-26T19:38:13.818Z,99639.13
2022-08-26T19:40:40.415Z,99644.03
2022-08-26T19:43:07.452Z,99649.00
2022-08-26T19:45:34.692Z,99651.06
2022-08-26T19:48:02.451Z,99643.81
2022-08-26T19:50:32.923Z,99636.75
2022-08-26T19:53:00.334Z,99648.94
2022-08-26T19:55:27.869Z,99659.16
2022-08-26T19:57:54.482Z,99653.31
2022-08-26T20:00:28.947Z,99661.41
2022-08-26T20:02:56.501Z,99648.91
2022-08-26T20:05:24.527Z,99654.41
2022-08-26T20:07:52.397Z,99624.03
2022-08-26T20:10:23.099Z,99653.19
2022-08-26T20:12:51.922Z,99656.31
2022-08-26T20:15:20.518Z,99636.31
2022-08-26T20:17:47.332Z,99629.63
2022-08-26T20:20:34.750Z,99625.91
2022-08-26T20:23:04.435Z,99620.81
2022-08-26T20:25:32.658Z,99618.78
2022-08-26T20:27:59.777Z,99617.91
2022-08-26T20:30:26.828Z,99620.53
2022-08-26T20:32:53.431Z,99631.59
2022-08-26T20:35:20.181Z,99633.44
2022-08-26T20:37:47.388Z,99640.72
2022-08-26T20:40:15.271Z,99640.16
2022-08-26T20:42:42.546Z,99637.88
2022-08-26T20:45:09.676Z,99634.00
2022-08-26T20:47:36.361Z,99632.91
2022-08-26T20:50:03.500Z,99637.09
2022-08-26T20:52:30.134Z,99643.22
2022-08-26T20:54:56.711Z,99646.34
2022-08-26T20:57:23.368Z,99645.00
2022-08-26T20:59:50.388Z,99644.94
2022-08-26T21:02:17.098Z,99646.25
2022-08-26T21:04:43.786Z,99641.84
2022-08-26T21:07:10.466Z,99643.59
2022-08-26T21:09:37.055Z,99640.22
2022-08-26T21:12:05.130Z,99642.91
2022-08-26T21:14:31.779Z,99653.25
2022-08-26T21:16:58.573Z,99650.13
2022-08-26T21:19:25.529Z,99639.09
2022-08-26T21:21:52.293Z,99632.88
2022-08-26T21:24:19.090Z,99628.78
2022-08-26T21:26:45.934Z,99620.50
2022-08-26T21:29:13.709Z,99619.16
2022-08-26T21:31:45.686Z,99623.06
2022-08-26T21:34:14.654Z,99626.91
2022-08-26T21:36:41.877Z,99631.69
2022-08-26T21:39:11.739Z,99627.06
2022-08-26T21:41:39.690Z,99629.31
2022-08-26T21:44:06.823Z,68515.09
2022-08-26T21:46:36.361Z,99639.59
2022-08-26T21:49:07.492Z,99641.81
2022-08-26T21:51:44.043Z,99631.78
2022-08-26T21:54:12.226Z,99631.03
2022-08-26T21:56:46.173Z,99634.41
2022-08-26T21:59:15.531Z,99625.34
2022-08-26T22:01:42.171Z,99639.00
2022-08-26T22:04:09.833Z,99627.19
2022-08-26T22:06:42.856Z,99619.03
2022-08-26T22:09:09.830Z,99609.97
2022-08-26T22:11:36.450Z,99621.50
2022-08-26T22:14:03.139Z,99609.19
2022-08-26T22:16:29.795Z,99610.53
2022-08-26T22:18:56.516Z,99612.09
2022-08-26T22:21:24.910Z,99610.06
2022-08-26T22:23:57.870Z,99613.94
2022-08-26T22:26:28.822Z,99608.09
2022-08-26T22:28:58.634Z,99601.84
2022-08-26T22:31:37.624Z,99602.28
2022-08-26T22:34:12.285Z,99599.78
2022-08-26T22:36:44.199Z,99593.53
2022-08-26T22:39:13.094Z,99596.44
2022-08-26T22:41:40.345Z,99601.22
2022-08-26T22:44:07.564Z,99612.09
2022-08-26T22:46:36.756Z,99613.25
2022-08-26T22:49:04.794Z,99599.44
2022-08-26T22:51:32.013Z,99601.84
2022-08-26T22:53:58.585Z,99603.16
2022-08-26T22:56:25.144Z,99594.91
2022-08-26T22:58:51.792Z,99599.50
2022-08-26T23:01:18.449Z,99588.13
2022-08-26T23:03:46.121Z,99588.91
2022-08-26T23:06:12.989Z,99591.25
2022-08-26T23:08:41.868Z,99580.31
2022-08-26T23:11:10.855Z,99587.56
2022-08-26T23:13:38.217Z,99579.59
2022-08-26T23:18:36.337Z,99592.78
2022-08-26T23:21:03.081Z,99596.47
2022-08-26T23:23:29.716Z,99589.00
2022-08-26T23:25:56.515Z,99577.56
2022-08-26T23:28:24.008Z,99580.97
2022-08-26T23:30:50.608Z,99580.25
2022-08-26T23:33:17.271Z,99576.75
2022-08-26T23:35:44.242Z,99578.84
2022-08-26T23:38:11.700Z,99580.34
2022-08-26T23:40:41.562Z,99589.72
2022-08-26T23:43:11.579Z,99587.09
2022-08-26T23:45:38.944Z,99583.47
2022-08-26T23:48:06.557Z,99586.44
2022-08-26T23:50:51.983Z,99587.59
2022-08-26T23:53:21.729Z,99570.81
2022-08-26T23:55:51.018Z,99590.38
2022-08-26T23:58:19.956Z,99590.78
